Time;durP1;ratioP1;P1;durP2;ratioP2;P2;SDS_P1;SDS_P2;PMS_P1;PMS_P2;Temp;Humidity;BMP_temperature;BMP_pressure;BME280_temperature;BME280_humidity;BME280_pressure;Samples;Min_cycle;Max_cycle;Signal;HPM_P1;HPM_P2
2023/02/03 00:01:31;;;;;;;;;;;9.70;99.90;;;;;;5085987;28;19974;-84
2023/02/03 00:03:57;;;;;;;;;;;9.70;99.90;;;;;;5082707;28;20464;-82
2023/02/03 00:06:23;;;;;;;;;;;9.60;99.90;;;;;;5086393;28;19912;-82
2023/02/03 00:08:53;;;;;;;;;;;9.60;99.90;;;;;;5092942;28;19919;-84
2023/02/03 00:11:18;;;;;;;;;;;9.70;99.90;;;;;;5078777;28;19957;-84
2023/02/03 00:13:44;;;;;;;;;;;9.70;99.90;;;;;;5081077;28;20241;-83
2023/02/03 00:16:09;;;;;;;;;;;9.70;99.90;;;;;;5076516;28;19976;-84
2023/02/03 00:18:35;;;;;;;;;;;9.70;99.90;;;;;;5094152;28;19916;-84
2023/02/03 00:21:00;;;;;;;;;;;9.70;99.90;;;;;;5096194;28;19920;-85
2023/02/03 00:23:28;;;;;;;;;;;9.70;99.90;;;;;;5076117;28;19912;-84
2023/02/03 00:25:54;;;;;;;;;;;9.70;99.90;;;;;;5080647;28;19912;-82
2023/02/03 00:28:19;;;;;;;;;;;9.70;99.90;;;;;;5082158;28;19927;-82
2023/02/03 00:30:45;;;;;;;;;;;9.70;99.90;;;;;;5076602;28;19920;-83
2023/02/03 00:33:10;;;;;;;;;;;9.70;99.90;;;;;;5083448;28;19923;-83
2023/02/03 00:35:36;;;;;;;;;;;9.70;99.90;;;;;;5098222;28;20262;-84
2023/02/03 00:38:02;;;;;;;;;;;9.70;99.90;;;;;;5101145;28;19956;-83
2023/02/03 00:40:28;;;;;;;;;;;9.70;99.90;;;;;;5092938;28;19975;-83
2023/02/03 00:42:54;;;;;;;;;;;9.70;99.90;;;;;;5081253;28;19920;-84
2023/02/03 00:45:21;;;;;;;;;;;9.70;99.90;;;;;;5102997;28;19923;-82
2023/02/03 00:47:46;;;;;;;;;;;9.80;99.90;;;;;;5084331;28;19916;-83
2023/02/03 00:50:12;;;;;;;;;;;9.80;99.90;;;;;;5112773;28;19999;-83
2023/02/03 00:52:37;;;;;;;;;;;9.80;99.90;;;;;;5082319;28;19923;-85
2023/02/03 00:55:03;;;;;;;;;;;9.80;99.90;;;;;;5103423;28;19913;-85
2023/02/03 00:57:29;;;;;;;;;;;9.80;99.90;;;;;;5083838;28;20291;-86
2023/02/03 00:59:54;;;;;;;;;;;9.80;99.90;;;;;;5083099;28;19908;-83
2023/02/03 01:02:20;;;;;;;;;;;9.80;99.90;;;;;;5110990;28;19949;-83
2023/02/03 01:04:46;;;;;;;;;;;9.80;99.90;;;;;;5092707;28;19916;-85
2023/02/03 01:07:11;;;;;;;;;;;9.70;99.90;;;;;;5100853;28;19920;-85
2023/02/03 01:09:36;;;;;;;;;;;9.80;99.90;;;;;;5077247;28;19916;-86
2023/02/03 01:12:02;;;;;;;;;;;9.80;99.90;;;;;;5107027;28;19912;-86
2023/02/03 01:14:28;;;;;;;;;;;9.80;99.90;;;;;;5090713;28;19920;-85
2023/02/03 01:16:53;;;;;;;;;;;9.80;99.90;;;;;;5085615;28;19927;-83
2023/02/03 01:19:19;;;;;;;;;;;9.90;99.90;;;;;;5107768;28;19951;-86
2023/02/03 01:21:45;;;;;;;;;;;9.90;99.90;;;;;;5083770;28;20009;-85
2023/02/03 01:24:10;;;;;;;;;;;9.90;99.90;;;;;;5103186;28;19911;-86
2023/02/03 01:26:35;;;;;;;;;;;9.90;99.90;;;;;;5083521;28;19919;-86
2023/02/03 01:29:01;;;;;;;;;;;9.80;99.90;;;;;;5098948;28;19923;-86
2023/02/03 01:31:28;;;;;;;;;;;9.90;99.90;;;;;;5093565;28;19908;-88
2023/02/03 01:33:54;;;;;;;;;;;9.90;99.90;;;;;;5084290;28;19916;-85
2023/02/03 01:36:20;;;;;;;;;;;9.90;99.90;;;;;;5081169;28;20376;-83
2023/02/03 01:38:45;;;;;;;;;;;9.90;99.90;;;;;;5084836;28;19921;-86
2023/02/03 01:41:12;;;;;;;;;;;9.90;99.90;;;;;;5088254;28;19920;-86
2023/02/03 01:43:40;;;;;;;;;;;9.90;99.90;;;;;;5082536;28;19912;-86
2023/02/03 01:46:31;;;;;;;;;;;9.90;99.90;;;;;;5109363;28;20482;-86
2023/02/03 01:49:04;;;;;;;;;;;9.90;99.90;;;;;;5081138;28;19920;-84
2023/02/03 01:51:30;;;;;;;;;;;9.90;99.90;;;;;;5089137;28;19991;-84
2023/02/03 01:53:56;;;;;;;;;;;9.90;99.90;;;;;;5089681;28;20044;-84
2023/02/03 01:56:22;;;;;;;;;;;9.90;99.90;;;;;;5083035;28;19991;-83
2023/02/03 01:58:48;;;;;;;;;;;9.90;99.90;;;;;;5090085;28;19919;-84
2023/02/03 02:01:14;;;;;;;;;;;9.90;99.90;;;;;;5083624;28;20280;-84
2023/02/03 02:03:50;;;;;;;;;;;9.80;99.90;;;;;;5087930;28;19927;-84
2023/02/03 02:06:16;;;;;;;;;;;9.80;99.90;;;;;;5083725;28;19916;-83
2023/02/03 02:08:43;;;;;;;;;;;9.90;99.90;;;;;;5100098;28;20364;-87
2023/02/03 02:11:09;;;;;;;;;;;9.90;99.90;;;;;;5089052;28;19912;-86
2023/02/03 02:13:35;;;;;;;;;;;9.90;99.90;;;;;;5090709;28;19923;-85
2023/02/03 02:16:15;;;;;;;;;;;9.90;99.90;;;;;;5101939;28;19916;-86
2023/02/03 02:18:41;;;;;;;;;;;9.90;99.90;;;;;;5098816;28;19924;-85
2023/02/03 02:21:22;;;;;;;;;;;9.90;99.90;;;;;;5102137;28;19912;-87
2023/02/03 02:24:06;;;;;;;;;;;9.80;99.90;;;;;;5082323;28;19919;-87
2023/02/03 02:26:46;;;;;;;;;;;9.80;99.90;;;;;;5104383;28;19911;-85
2023/02/03 02:29:25;;;;;;;;;;;9.80;99.90;;;;;;5080582;28;20354;-85
2023/02/03 02:31:54;;;;;;;;;;;9.80;99.90;;;;;;5107897;28;19911;-86
2023/02/03 02:34:25;;;;;;;;;;;9.80;99.90;;;;;;5099591;28;19923;-84
2023/02/03 02:37:11;;;;;;;;;;;9.80;99.90;;;;;;5100638;28;19912;-86
2023/02/03 02:39:39;;;;;;;;;;;9.80;99.90;;;;;;5093811;28;19916;-86
2023/02/03 02:42:13;;;;;;;;;;;9.80;99.90;;;;;;5103500;28;19916;-85
2023/02/03 02:44:40;;;;;;;;;;;9.80;99.90;;;;;;5078734;28;19912;-86
2023/02/03 02:47:14;;;;;;;;;;;9.70;99.90;;;;;;5078548;28;19974;-84
2023/02/03 02:49:40;;;;;;;;;;;9.80;99.90;;;;;;5092581;28;20010;-85
2023/02/03 02:52:07;;;;;;;;;;;9.70;99.90;;;;;;5085835;28;19959;-86
2023/02/03 02:54:33;;;;;;;;;;;9.70;99.90;;;;;;5112187;28;19924;-85
2023/02/03 02:57:00;;;;;;;;;;;9.80;99.90;;;;;;5108282;28;19948;-84
2023/02/03 02:59:26;;;;;;;;;;;9.80;99.90;;;;;;5086580;28;20540;-86
2023/02/03 03:01:51;;;;;;;;;;;9.80;99.90;;;;;;5088669;28;19909;-85
2023/02/03 03:04:20;;;;;;;;;;;9.80;99.90;;;;;;5102641;28;19908;-85
2023/02/03 03:06:46;;;;;;;;;;;9.80;99.90;;;;;;5079404;28;19916;-84
2023/02/03 03:09:17;;;;;;;;;;;9.80;99.90;;;;;;5081924;28;19934;-84
2023/02/03 03:11:45;;;;;;;;;;;9.80;99.90;;;;;;5125480;28;19912;-84
2023/02/03 03:14:12;;;;;;;;;;;9.80;99.90;;;;;;5103401;28;19979;-85
2023/02/03 03:16:39;;;;;;;;;;;9.80;99.90;;;;;;5084844;28;19960;-84
2023/02/03 03:19:06;;;;;;;;;;;9.80;99.90;;;;;;5100954;28;19920;-83
2023/02/03 03:21:42;;;;;;;;;;;9.80;99.90;;;;;;5102314;28;19912;-86
2023/02/03 03:24:09;;;;;;;;;;;9.80;99.90;;;;;;5088149;28;20391;-86
2023/02/03 03:26:39;;;;;;;;;;;9.80;99.90;;;;;;5088991;28;19916;-86
2023/02/03 03:29:04;;;;;;;;;;;9.80;99.90;;;;;;5085589;28;19923;-84
2023/02/03 03:31:30;;;;;;;;;;;9.80;99.90;;;;;;5082434;28;19913;-86
2023/02/03 03:33:56;;;;;;;;;;;9.80;99.90;;;;;;5086210;28;19920;-86
2023/02/03 03:36:41;;;;;;;;;;;9.80;99.90;;;;;;5110829;28;19912;-86
2023/02/03 03:39:21;;;;;;;;;;;9.80;99.90;;;;;;5094112;28;19944;-83
2023/02/03 03:41:47;;;;;;;;;;;9.80;99.90;;;;;;5095614;28;19913;-85
2023/02/03 03:44:14;;;;;;;;;;;9.80;99.90;;;;;;5089913;28;19935;-84
2023/02/03 03:46:43;;;;;;;;;;;9.80;99.90;;;;;;5084637;28;19917;-84
2023/02/03 03:49:09;;;;;;;;;;;9.80;99.90;;;;;;5085410;28;19979;-86
2023/02/03 03:51:53;;;;;;;;;;;9.80;99.90;;;;;;5123422;27;19912;-85
2023/02/03 03:54:20;;;;;;;;;;;9.80;99.90;;;;;;5087851;28;19916;-85
2023/02/03 03:56:56;;;;;;;;;;;9.80;99.90;;;;;;5086270;28;20368;-85
2023/02/03 03:59:23;;;;;;;;;;;9.80;99.90;;;;;;5084398;28;19912;-84
2023/02/03 04:01:49;;;;;;;;;;;9.80;99.90;;;;;;5091549;28;19918;-86
2023/02/03 04:04:15;;;;;;;;;;;9.80;99.90;;;;;;5087218;28;19951;-86
2023/02/03 04:06:41;;;;;;;;;;;9.80;99.90;;;;;;5085624;28;19912;-85
2023/02/03 04:09:06;;;;;;;;;;;9.70;99.90;;;;;;5079773;28;19912;-82
2023/02/03 04:14:16;;;;;;;;;;;9.80;99.90;;;;;;5103918;28;19927;-83
2023/02/03 04:16:41;;;;;;;;;;;9.80;99.90;;;;;;5089073;28;19912;-83
2023/02/03 04:19:07;;;;;;;;;;;9.80;99.90;;;;;;5096314;28;19913;-86
2023/02/03 04:21:32;;;;;;;;;;;9.80;99.90;;;;;;5084936;28;19922;-87
2023/02/03 04:23:57;;;;;;;;;;;9.70;99.90;;;;;;5103438;28;20326;-86
2023/02/03 04:26:23;;;;;;;;;;;9.70;99.90;;;;;;5088422;28;20023;-84
2023/02/03 04:28:48;;;;;;;;;;;9.70;99.90;;;;;;5099848;28;19923;-86
2023/02/03 04:31:14;;;;;;;;;;;9.70;99.90;;;;;;5081168;28;19912;-86
2023/02/03 04:33:39;;;;;;;;;;;9.70;99.90;;;;;;5082023;28;19912;-84
2023/02/03 04:36:05;;;;;;;;;;;9.70;99.90;;;;;;5111725;28;20041;-82
2023/02/03 04:38:32;;;;;;;;;;;9.80;99.90;;;;;;5107692;28;19918;-83
2023/02/03 04:40:57;;;;;;;;;;;9.80;99.90;;;;;;5092232;28;19934;-85
2023/02/03 04:43:23;;;;;;;;;;;9.70;99.90;;;;;;5097560;28;19916;-83
2023/02/03 04:45:48;;;;;;;;;;;9.70;99.90;;;;;;5095296;28;20391;-84
2023/02/03 04:48:14;;;;;;;;;;;9.70;99.90;;;;;;5104995;28;19912;-85
2023/02/03 04:50:39;;;;;;;;;;;9.80;99.90;;;;;;5107637;28;19912;-85
2023/02/03 04:53:05;;;;;;;;;;;9.80;99.90;;;;;;5103817;28;19916;-84
2023/02/03 04:55:30;;;;;;;;;;;9.80;99.90;;;;;;5099608;28;19948;-84
2023/02/03 04:57:56;;;;;;;;;;;9.70;99.90;;;;;;5082215;28;20066;-84
2023/02/03 05:00:22;;;;;;;;;;;9.80;99.90;;;;;;5102351;28;20257;-83
2023/02/03 05:02:47;;;;;;;;;;;9.80;99.90;;;;;;5087772;28;19973;-85
2023/02/03 05:05:13;;;;;;;;;;;9.80;99.90;;;;;;5090971;28;19958;-84
2023/02/03 05:07:38;;;;;;;;;;;9.80;99.90;;;;;;5084075;28;19912;-83
2023/02/03 05:10:04;;;;;;;;;;;9.80;99.90;;;;;;5079169;28;19973;-83
2023/02/03 05:12:29;;;;;;;;;;;9.80;99.90;;;;;;5113740;28;19923;-83
2023/02/03 05:14:55;;;;;;;;;;;9.80;99.90;;;;;;5084909;28;19908;-84
2023/02/03 05:17:20;;;;;;;;;;;9.80;99.90;;;;;;5086096;28;19912;-85
2023/02/03 05:19:46;;;;;;;;;;;9.70;99.90;;;;;;5093146;28;20283;-84
2023/02/03 05:22:11;;;;;;;;;;;9.70;99.90;;;;;;5102077;28;20014;-85
2023/02/03 05:24:37;;;;;;;;;;;9.70;99.90;;;;;;5087243;28;19965;-85
2023/02/03 05:27:02;;;;;;;;;;;9.70;99.90;;;;;;5084251;28;19919;-84
2023/02/03 05:29:28;;;;;;;;;;;9.70;99.90;;;;;;5076605;28;20005;-84
2023/02/03 05:31:53;;;;;;;;;;;9.70;99.90;;;;;;5084365;28;20408;-84
2023/02/03 05:34:19;;;;;;;;;;;9.70;99.90;;;;;;5083972;28;19930;-85
2023/02/03 05:36:44;;;;;;;;;;;9.70;99.90;;;;;;5102975;28;19912;-84
2023/02/03 05:39:10;;;;;;;;;;;9.70;99.90;;;;;;5075472;28;19943;-84
2023/02/03 05:41:51;;;;;;;;;;;9.70;99.90;;;;;;5095861;28;20360;-85
2023/02/03 05:44:17;;;;;;;;;;;9.70;99.90;;;;;;5090852;28;19916;-84
2023/02/03 05:46:42;;;;;;;;;;;9.70;99.90;;;;;;5088470;28;19916;-84
2023/02/03 05:49:07;;;;;;;;;;;9.70;99.90;;;;;;5081585;28;19912;-82
2023/02/03 05:51:33;;;;;;;;;;;9.80;99.90;;;;;;5079619;28;19916;-85
2023/02/03 05:53:58;;;;;;;;;;;9.80;99.90;;;;;;5082965;28;20365;-85
2023/02/03 05:56:25;;;;;;;;;;;9.80;99.90;;;;;;5086220;28;19927;-84
2023/02/03 05:58:52;;;;;;;;;;;9.80;99.90;;;;;;5116568;27;20138;-86
2023/02/03 06:01:18;;;;;;;;;;;9.80;99.90;;;;;;5101357;28;19912;-85
2023/02/03 06:03:44;;;;;;;;;;;9.80;99.90;;;;;;5081123;28;19916;-84
2023/02/03 06:06:09;;;;;;;;;;;9.80;99.90;;;;;;5079892;28;19912;-82
2023/02/03 06:08:35;;;;;;;;;;;9.80;99.90;;;;;;5078256;28;19917;-82
2023/02/03 06:11:01;;;;;;;;;;;9.80;99.90;;;;;;5091504;28;19932;-83
2023/02/03 06:13:26;;;;;;;;;;;9.80;99.90;;;;;;5076347;28;19927;-87
2023/02/03 06:15:52;;;;;;;;;;;9.80;99.90;;;;;;5095489;28;19934;-84
2023/02/03 06:18:17;;;;;;;;;;;9.80;99.90;;;;;;5097216;28;19920;-86
2023/02/03 06:20:43;;;;;;;;;;;9.80;99.90;;;;;;5078245;28;19938;-86
2023/02/03 06:23:08;;;;;;;;;;;9.80;99.90;;;;;;5084814;28;19922;-85
2023/02/03 06:25:34;;;;;;;;;;;9.90;99.90;;;;;;5086928;28;19911;-84
2023/02/03 06:27:59;;;;;;;;;;;9.90;99.90;;;;;;5083773;28;20348;-85
2023/02/03 06:30:25;;;;;;;;;;;9.90;99.90;;;;;;5074800;28;19955;-84
2023/02/03 06:32:50;;;;;;;;;;;9.90;99.90;;;;;;5080426;28;20007;-85
2023/02/03 06:35:16;;;;;;;;;;;9.90;99.90;;;;;;5091018;28;19913;-83
2023/02/03 06:37:42;;;;;;;;;;;9.90;99.90;;;;;;5107308;28;19913;-84
2023/02/03 06:40:08;;;;;;;;;;;9.90;99.90;;;;;;5099654;28;20006;-84
2023/02/03 06:42:33;;;;;;;;;;;9.90;99.90;;;;;;5083031;28;20364;-86
2023/02/03 06:44:59;;;;;;;;;;;9.90;99.90;;;;;;5101843;28;19915;-82
2023/02/03 06:47:24;;;;;;;;;;;9.90;99.90;;;;;;5082458;28;19934;-83
2023/02/03 06:49:51;;;;;;;;;;;9.80;99.90;;;;;;5103992;28;19916;-83
2023/02/03 06:52:16;;;;;;;;;;;9.90;99.90;;;;;;5081971;28;20420;-84
2023/02/03 06:54:42;;;;;;;;;;;9.90;99.90;;;;;;5104368;28;19919;-79
2023/02/03 06:57:07;;;;;;;;;;;9.90;99.90;;;;;;5097607;28;19913;-82
2023/02/03 06:59:33;;;;;;;;;;;10.00;99.90;;;;;;5105594;28;20319;-81
2023/02/03 07:01:58;;;;;;;;;;;10.00;99.90;;;;;;5087604;28;20258;-82
2023/02/03 07:04:27;;;;;;;;;;;9.90;99.90;;;;;;5090135;28;19908;-80
2023/02/03 07:06:52;;;;;;;;;;;9.90;99.90;;;;;;5107199;28;19916;-81
2023/02/03 07:09:18;;;;;;;;;;;9.90;99.90;;;;;;5107012;28;19909;-81
2023/02/03 07:11:43;;;;;;;;;;;9.90;99.90;;;;;;5108120;28;19908;-80
2023/02/03 07:14:09;;;;;;;;;;;9.90;99.90;;;;;;5107063;28;19946;-81
2023/02/03 07:16:36;;;;;;;;;;;9.90;99.90;;;;;;5106180;28;19958;-80
2023/02/03 07:19:02;;;;;;;;;;;10.00;99.90;;;;;;5107362;28;19908;-81
2023/02/03 07:21:27;;;;;;;;;;;10.00;99.90;;;;;;5088591;28;19983;-82
2023/02/03 07:23:53;;;;;;;;;;;10.00;99.90;;;;;;5106575;28;19940;-79
2023/02/03 07:26:18;;;;;;;;;;;10.00;99.90;;;;;;5090071;28;19915;-80
2023/02/03 07:28:44;;;;;;;;;;;10.00;99.90;;;;;;5107455;28;19916;-78
2023/02/03 07:31:09;;;;;;;;;;;10.00;99.90;;;;;;5090392;28;20525;-80
2023/02/03 07:33:36;;;;;;;;;;;10.00;99.90;;;;;;5087827;28;20135;-81
2023/02/03 07:36:02;;;;;;;;;;;10.00;99.90;;;;;;5107169;28;19909;-80
2023/02/03 07:38:28;;;;;;;;;;;10.00;99.90;;;;;;5090165;28;20013;-80
2023/02/03 07:40:53;;;;;;;;;;;10.00;99.90;;;;;;5108172;28;19947;-81
2023/02/03 07:43:19;;;;;;;;;;;10.00;99.90;;;;;;5107782;28;19976;-81
2023/02/03 07:45:45;;;;;;;;;;;10.00;99.90;;;;;;5108856;28;19912;-81
2023/02/03 07:48:10;;;;;;;;;;;10.00;99.90;;;;;;5090477;28;19995;-81
2023/02/03 07:50:35;;;;;;;;;;;10.00;99.90;;;;;;5089515;28;20002;-80
2023/02/03 07:53:01;;;;;;;;;;;10.00;99.90;;;;;;5089395;28;19912;-81
2023/02/03 07:55:27;;;;;;;;;;;10.00;99.90;;;;;;5107566;28;19908;-80
2023/02/03 08:01:45;;;;;;;;;;;10.00;99.90;;;;;;5025262;28;20050;-80
2023/02/03 08:10:58;;;;;;;;;;;10.00;99.90;;;;;;5005757;28;19961;-81
2023/02/03 09:18:26;;;;;;;;;;;10.00;99.90;;;;;;5103577;28;19950;-80
2023/02/03 09:30:03;;;;;;;;;;;10.00;99.90;;;;;;5100242;28;20395;-79
2023/02/03 09:32:28;;;;;;;;;;;10.00;99.90;;;;;;5080840;28;19912;-80
2023/02/03 09:34:54;;;;;;;;;;;9.90;99.90;;;;;;5099575;28;20018;-80
2023/02/03 09:37:19;;;;;;;;;;;9.90;99.90;;;;;;5099605;28;19908;-81
2023/02/03 09:39:45;;;;;;;;;;;9.90;99.90;;;;;;5074637;28;20054;-79
2023/02/03 09:42:19;;;;;;;;;;;9.90;99.90;;;;;;5097744;28;19912;-81
2023/02/03 09:44:52;;;;;;;;;;;9.90;99.90;;;;;;5100571;28;19965;-80
2023/02/03 09:47:23;;;;;;;;;;;9.90;99.90;;;;;;5092916;28;19912;-80
2023/02/03 09:49:50;;;;;;;;;;;9.90;99.90;;;;;;5097036;28;19908;-80
2023/02/03 09:52:18;;;;;;;;;;;9.90;99.90;;;;;;5097797;28;19912;-80
2023/02/03 09:54:52;;;;;;;;;;;9.80;99.90;;;;;;5081754;28;20405;-79
2023/02/03 09:57:23;;;;;;;;;;;9.90;99.90;;;;;;5084329;28;19923;-79
2023/02/03 09:59:49;;;;;;;;;;;9.90;99.90;;;;;;5103806;28;19908;-80
2023/02/03 10:02:17;;;;;;;;;;;9.90;99.90;;;;;;5085408;28;19912;-79
2023/02/03 10:04:49;;;;;;;;;;;9.90;99.90;;;;;;5100628;28;19912;-81
2023/02/03 10:07:24;;;;;;;;;;;9.80;99.90;;;;;;5085459;28;19908;-80
2023/02/03 10:10:04;;;;;;;;;;;9.80;99.90;;;;;;5087205;28;19908;-80
2023/02/03 10:12:44;;;;;;;;;;;9.80;99.90;;;;;;5096625;28;20234;-81
2023/02/03 10:15:18;;;;;;;;;;;9.80;99.90;;;;;;5090914;28;19920;-79
2023/02/03 10:17:49;;;;;;;;;;;9.80;99.90;;;;;;5069957;28;19909;-80
2023/02/03 10:20:17;;;;;;;;;;;9.70;99.90;;;;;;5099945;28;19955;-82
2023/02/03 10:23:12;;;;;;;;;;;9.70;99.90;;;;;;5099505;28;19912;-83
2023/02/03 10:25:40;;;;;;;;;;;9.70;99.90;;;;;;5084047;28;19912;-80
2023/02/03 10:28:16;;;;;;;;;;;9.50;99.90;;;;;;5083038;28;19922;-79
2023/02/03 10:30:44;;;;;;;;;;;9.50;99.90;;;;;;5099460;28;20121;-80
2023/02/03 10:33:11;;;;;;;;;;;9.50;99.90;;;;;;5102316;28;19916;-81
2023/02/03 10:35:50;;;;;;;;;;;9.50;99.90;;;;;;5099693;28;19920;-78
2023/02/03 10:38:36;;;;;;;;;;;9.50;99.90;;;;;;5100810;28;19942;-79
2023/02/03 10:41:02;;;;;;;;;;;9.40;99.90;;;;;;5048462;28;19916;-77
2023/02/03 10:43:47;;;;;;;;;;;9.40;99.90;;;;;;5100314;28;19909;-78
2023/02/03 10:46:20;;;;;;;;;;;9.40;99.90;;;;;;5082144;28;19923;-80
2023/02/03 10:48:45;;;;;;;;;;;9.40;99.90;;;;;;5100117;28;19908;-78
2023/02/03 10:51:17;;;;;;;;;;;9.40;99.90;;;;;;5080906;28;19930;-79
2023/02/03 10:53:42;;;;;;;;;;;9.40;99.90;;;;;;5101115;28;20319;-79
2023/02/03 10:56:09;;;;;;;;;;;9.40;99.90;;;;;;5098420;28;19938;-79
2023/02/03 10:58:35;;;;;;;;;;;9.30;99.90;;;;;;5102810;28;19989;-80
2023/02/03 11:01:06;;;;;;;;;;;9.30;99.90;;;;;;5081360;28;19930;-79
2023/02/03 11:03:32;;;;;;;;;;;9.30;99.90;;;;;;5100561;28;20288;-79
2023/02/03 11:06:06;;;;;;;;;;;9.30;99.90;;;;;;5100938;28;19908;-79
2023/02/03 11:08:33;;;;;;;;;;;9.30;99.90;;;;;;5100683;28;19954;-78
2023/02/03 11:11:03;;;;;;;;;;;9.30;99.90;;;;;;5100984;28;19930;-78
2023/02/03 11:13:29;;;;;;;;;;;9.40;99.90;;;;;;5100362;28;19912;-80
2023/02/03 11:16:26;;;;;;;;;;;9.40;99.90;;;;;;5107197;28;19998;-82
2023/02/03 11:18:54;;;;;;;;;;;9.40;99.90;;;;;;5030658;28;20494;-80
2023/02/03 11:21:26;;;;;;;;;;;9.40;99.90;;;;;;5082147;28;19923;-81
2023/02/03 11:23:51;;;;;;;;;;;9.50;99.90;;;;;;5098602;28;20364;-79
2023/02/03 11:26:18;;;;;;;;;;;9.50;99.90;;;;;;5080186;28;19915;-79
2023/02/03 11:28:45;;;;;;;;;;;9.50;99.90;;;;;;5080984;28;20039;-79
2023/02/03 11:31:21;;;;;;;;;;;9.50;99.90;;;;;;5094798;28;20377;-79
2023/02/03 11:33:49;;;;;;;;;;;9.60;99.90;;;;;;5085533;28;19912;-80
2023/02/03 11:36:16;;;;;;;;;;;9.60;99.90;;;;;;5100010;28;19908;-80
2023/02/03 11:38:43;;;;;;;;;;;9.60;99.90;;;;;;5099847;28;19930;-80
2023/02/03 11:41:16;;;;;;;;;;;9.60;99.90;;;;;;5081339;28;19908;-80
2023/02/03 11:43:42;;;;;;;;;;;9.60;99.90;;;;;;5104069;28;20002;-80
2023/02/03 11:46:08;;;;;;;;;;;9.70;99.90;;;;;;5084203;28;19962;-79
2023/02/03 11:48:34;;;;;;;;;;;9.70;99.90;;;;;;5101927;28;19909;-80
2023/02/03 11:51:18;;;;;;;;;;;9.70;99.90;;;;;;5087619;28;19912;-80
2023/02/03 11:54:04;;;;;;;;;;;9.80;99.90;;;;;;5098023;28;19912;-82
2023/02/03 11:56:34;;;;;;;;;;;9.80;99.90;;;;;;5082651;28;19912;-80
2023/02/03 11:58:59;;;;;;;;;;;9.80;99.90;;;;;;5099626;28;20373;-80
2023/02/03 12:01:42;;;;;;;;;;;9.80;99.90;;;;;;5076267;28;19908;-81
2023/02/03 12:04:26;;;;;;;;;;;9.80;99.90;;;;;;5078289;28;19912;-83
2023/02/03 12:06:52;;;;;;;;;;;9.90;99.90;;;;;;5100425;28;19912;-81
2023/02/03 12:09:42;;;;;;;;;;;9.90;99.90;;;;;;5097357;28;19912;-81
2023/02/03 12:12:26;;;;;;;;;;;9.90;99.90;;;;;;5098318;28;19916;-81
2023/02/03 12:14:55;;;;;;;;;;;9.90;99.90;;;;;;5092778;28;19916;-81
2023/02/03 12:17:25;;;;;;;;;;;9.90;99.90;;;;;;5080657;28;19965;-80
2023/02/03 12:20:10;;;;;;;;;;;9.90;99.90;;;;;;5102632;28;19970;-81
2023/02/03 12:22:43;;;;;;;;;;;10.00;99.90;;;;;;5094580;28;20323;-81
2023/02/03 12:25:09;;;;;;;;;;;10.00;99.90;;;;;;5085617;28;20408;-80
2023/02/03 12:27:43;;;;;;;;;;;10.00;99.90;;;;;;5082934;28;19958;-81
2023/02/03 12:30:13;;;;;;;;;;;10.10;99.90;;;;;;5094849;28;19912;-81
2023/02/03 12:32:46;;;;;;;;;;;10.10;99.90;;;;;;5071410;28;19999;-81
2023/02/03 12:35:11;;;;;;;;;;;10.10;99.90;;;;;;5097351;28;19916;-82
2023/02/03 12:37:50;;;;;;;;;;;10.10;99.90;;;;;;5089506;28;19957;-79
2023/02/03 12:40:27;;;;;;;;;;;10.10;99.90;;;;;;5099044;28;20349;-83
2023/02/03 12:42:55;;;;;;;;;;;10.10;99.90;;;;;;5098087;28;19919;-82
2023/02/03 12:45:29;;;;;;;;;;;10.20;99.90;;;;;;5098702;28;19916;-80
2023/02/03 12:48:01;;;;;;;;;;;10.10;99.90;;;;;;5078955;28;19912;-81
2023/02/03 12:50:29;;;;;;;;;;;10.20;99.90;;;;;;5102693;28;20375;-81
2023/02/03 12:52:54;;;;;;;;;;;10.20;99.90;;;;;;5076836;28;20598;-82
2023/02/03 12:55:26;;;;;;;;;;;10.20;99.90;;;;;;5085468;28;19912;-79
2023/02/03 12:57:53;;;;;;;;;;;10.20;99.90;;;;;;5081352;28;20293;-79
2023/02/03 13:00:38;;;;;;;;;;;10.30;99.90;;;;;;5106108;28;19951;-80
2023/02/03 13:03:11;;;;;;;;;;;10.20;99.90;;;;;;5103315;28;19920;-80
2023/02/03 13:05:42;;;;;;;;;;;10.30;99.90;;;;;;5093982;28;19927;-82
2023/02/03 13:08:17;;;;;;;;;;;10.30;99.90;;;;;;5075163;28;20384;-79
2023/02/03 13:10:55;;;;;;;;;;;10.30;99.90;;;;;;5098305;28;19974;-80
2023/02/03 13:13:42;;;;;;;;;;;10.30;99.90;;;;;;5094219;28;19990;-81
2023/02/03 13:16:09;;;;;;;;;;;10.30;99.90;;;;;;5094525;28;19923;-81
2023/02/03 13:18:36;;;;;;;;;;;10.30;99.90;;;;;;5094542;28;19916;-81
2023/02/03 13:21:01;;;;;;;;;;;10.30;99.90;;;;;;5097485;28;20647;-82
2023/02/03 13:23:27;;;;;;;;;;;10.30;99.90;;;;;;5078443;28;19932;-80
2023/02/03 13:26:02;;;;;;;;;;;10.30;99.90;;;;;;5098064;28;19927;-79
2023/02/03 13:28:42;;;;;;;;;;;10.30;99.90;;;;;;5097875;28;19913;-79
2023/02/03 13:31:08;;;;;;;;;;;10.30;99.90;;;;;;5091138;28;20016;-79
2023/02/03 13:33:45;;;;;;;;;;;10.30;99.90;;;;;;5096742;28;19919;-79
2023/02/03 13:36:22;;;;;;;;;;;10.30;99.90;;;;;;5098394;28;19918;-80
2023/02/03 13:39:07;;;;;;;;;;;10.20;99.90;;;;;;5088717;28;19913;-78
2023/02/03 13:41:35;;;;;;;;;;;10.20;99.90;;;;;;5091956;28;19912;-79
2023/02/03 13:44:01;;;;;;;;;;;10.20;99.90;;;;;;5081301;28;19979;-80
2023/02/03 13:46:29;;;;;;;;;;;10.10;99.90;;;;;;5097447;28;19920;-79
2023/02/03 13:48:57;;;;;;;;;;;10.10;99.90;;;;;;5099746;28;19916;-78
2023/02/03 13:51:32;;;;;;;;;;;10.10;99.90;;;;;;5097459;28;19912;-81
2023/02/03 13:54:00;;;;;;;;;;;10.10;99.90;;;;;;5080477;28;19916;-82
2023/02/03 13:56:27;;;;;;;;;;;10.10;99.90;;;;;;5098631;28;19916;-80
2023/02/03 13:59:00;;;;;;;;;;;10.00;99.90;;;;;;5094095;28;19929;-81
2023/02/03 14:01:39;;;;;;;;;;;10.00;99.90;;;;;;5095568;28;19923;-81
2023/02/03 14:04:24;;;;;;;;;;;10.00;99.90;;;;;;5093885;28;20378;-82
2023/02/03 14:06:53;;;;;;;;;;;10.00;99.90;;;;;;5095447;28;19970;-78
2023/02/03 14:09:19;;;;;;;;;;;9.90;99.90;;;;;;5093370;28;19975;-83
2023/02/03 14:11:45;;;;;;;;;;;9.90;99.90;;;;;;5081869;28;19968;-82
2023/02/03 14:14:11;;;;;;;;;;;9.90;99.90;;;;;;5082488;28;19962;-80
2023/02/03 14:16:37;;;;;;;;;;;9.90;99.90;;;;;;5101862;28;20303;-80
2023/02/03 14:19:03;;;;;;;;;;;9.90;99.90;;;;;;5101382;28;19916;-80
2023/02/03 14:21:41;;;;;;;;;;;9.90;99.90;;;;;;5092131;28;19920;-78
2023/02/03 14:24:08;;;;;;;;;;;9.90;99.90;;;;;;5093753;28;20443;-79
2023/02/03 14:26:37;;;;;;;;;;;9.90;99.90;;;;;;5078627;28;20288;-80
2023/02/03 14:29:03;;;;;;;;;;;9.90;99.90;;;;;;5079803;28;19916;-80
2023/02/03 14:31:29;;;;;;;;;;;9.90;99.90;;;;;;5091133;28;19923;-81
2023/02/03 14:33:56;;;;;;;;;;;10.00;99.90;;;;;;5096156;28;19920;-81
2023/02/03 14:36:44;;;;;;;;;;;10.00;99.90;;;;;;5100426;28;20369;-81
2023/02/03 14:39:16;;;;;;;;;;;10.00;99.90;;;;;;5067454;28;19916;-81
2023/02/03 14:42:04;;;;;;;;;;;10.00;99.90;;;;;;5091529;28;19920;-81
2023/02/03 14:44:36;;;;;;;;;;;10.10;99.90;;;;;;5088990;28;19912;-81
2023/02/03 14:47:02;;;;;;;;;;;10.10;99.90;;;;;;5092646;28;19916;-81
2023/02/03 14:49:39;;;;;;;;;;;10.20;99.90;;;;;;5090641;28;20335;-81
2023/02/03 14:52:05;;;;;;;;;;;10.20;99.90;;;;;;5088418;28;19998;-84
2023/02/03 14:54:47;;;;;;;;;;;10.20;99.90;;;;;;5076248;28;19948;-83
2023/02/03 14:57:18;;;;;;;;;;;10.30;99.90;;;;;;5091924;28;19951;-81
2023/02/03 15:00:03;;;;;;;;;;;10.30;99.90;;;;;;5092889;28;19923;-82
2023/02/03 15:02:30;;;;;;;;;;;10.30;99.90;;;;;;5096021;28;19918;-81
2023/02/03 15:05:10;;;;;;;;;;;10.30;99.90;;;;;;5092329;28;19919;-82
2023/02/03 15:07:44;;;;;;;;;;;10.30;99.90;;;;;;5093470;28;20465;-82
2023/02/03 15:10:11;;;;;;;;;;;10.30;99.90;;;;;;5076990;28;19943;-82
2023/02/03 15:12:37;;;;;;;;;;;10.40;99.90;;;;;;5093795;28;20293;-81
2023/02/03 15:15:20;;;;;;;;;;;10.30;99.90;;;;;;5095270;28;19931;-80
2023/02/03 15:17:45;;;;;;;;;;;10.30;99.90;;;;;;5096947;28;19978;-82
2023/02/03 15:20:22;;;;;;;;;;;10.30;99.90;;;;;;5100412;28;20545;-81
2023/02/03 15:22:48;;;;;;;;;;;10.30;99.90;;;;;;5096069;28;19916;-81
2023/02/03 15:25:17;;;;;;;;;;;10.30;99.90;;;;;;5097668;28;19998;-81
2023/02/03 15:27:43;;;;;;;;;;;10.30;99.90;;;;;;5104142;28;19919;-81
2023/02/03 15:30:16;;;;;;;;;;;10.30;99.90;;;;;;5082317;28;20557;-81
2023/02/03 15:32:45;;;;;;;;;;;10.30;99.90;;;;;;5080789;28;19916;-81
2023/02/03 15:35:15;;;;;;;;;;;10.30;99.90;;;;;;5098207;28;19923;-80
2023/02/03 15:37:43;;;;;;;;;;;10.30;99.90;;;;;;5100660;28;20550;-80
2023/02/03 15:40:17;;;;;;;;;;;10.40;99.90;;;;;;5102698;28;20661;-81
2023/02/03 15:42:56;;;;;;;;;;;10.40;99.90;;;;;;5104776;28;21474;-81
2023/02/03 15:45:21;;;;;;;;;;;10.40;99.90;;;;;;5099614;28;19920;-79
2023/02/03 15:47:50;;;;;;;;;;;10.40;99.90;;;;;;5095248;28;19954;-80
2023/02/03 15:50:29;;;;;;;;;;;10.40;99.90;;;;;;5099242;28;20288;-81
2023/02/03 15:52:56;;;;;;;;;;;10.40;99.90;;;;;;5078701;28;19916;-80
2023/02/03 15:55:34;;;;;;;;;;;10.40;99.90;;;;;;5096002;28;19916;-80
2023/02/03 15:58:00;;;;;;;;;;;10.40;99.90;;;;;;5082845;28;20250;-80
2023/02/03 16:00:32;;;;;;;;;;;10.50;99.90;;;;;;5093733;28;19920;-81
2023/02/03 16:02:58;;;;;;;;;;;10.50;99.90;;;;;;5088921;28;20001;-82
2023/02/03 16:05:25;;;;;;;;;;;10.50;99.90;;;;;;5081077;28;20371;-80